sensor_id;sensor_type;location;lat;lon;timestamp;P1;durP1;ratioP1;P2;durP2;ratioP2
19776;SDS011;10047;42.490;26.012;2023-03-23T00:01:14;15.23;;;11.02;;
19776;SDS011;10047;42.490;26.012;2023-03-23T00:03:55;15.32;;;10.82;;
19776;SDS011;10047;42.490;26.012;2023-03-23T00:06:24;14.45;;;10.38;;
19776;SDS011;10047;42.490;26.012;2023-03-23T00:08:52;14.38;;;9.98;;
19776;SDS011;10047;42.490;26.012;2023-03-23T00:11:25;13.80;;;10.10;;
19776;SDS011;10047;42.490;26.012;2023-03-23T00:13:54;13.77;;;9.55;;
19776;SDS011;10047;42.490;26.012;2023-03-23T00:16:27;12.98;;;9.40;;
19776;SDS011;10047;42.490;26.012;2023-03-23T00:18:59;12.80;;;9.70;;
19776;SDS011;10047;42.490;26.012;2023-03-23T00:24:03;11.98;;;8.95;;
19776;SDS011;10047;42.490;26.012;2023-03-23T00:26:36;12.75;;;9.88;;
19776;SDS011;10047;42.490;26.012;2023-03-23T00:31:52;11.48;;;8.93;;
19776;SDS011;10047;42.490;26.012;2023-03-23T00:34:18;12.55;;;9.52;;
19776;SDS011;10047;42.490;26.012;2023-03-23T00:36:47;12.27;;;9.43;;
19776;SDS011;10047;42.490;26.012;2023-03-23T00:39:18;11.93;;;9.35;;
19776;SDS011;10047;42.490;26.012;2023-03-23T00:41:44;12.35;;;9.73;;
19776;SDS011;10047;42.490;26.012;2023-03-23T00:44:16;12.07;;;9.50;;
19776;SDS011;10047;42.490;26.012;2023-03-23T00:46:46;13.43;;;9.45;;
19776;SDS011;10047;42.490;26.012;2023-03-23T00:49:14;13.10;;;9.85;;
19776;SDS011;10047;42.490;26.012;2023-03-23T00:51:42;12.85;;;9.32;;
19776;SDS011;10047;42.490;26.012;2023-03-23T00:54:08;12.25;;;9.75;;
19776;SDS011;10047;42.490;26.012;2023-03-23T00:56:34;11.02;;;8.75;;
19776;SDS011;10047;42.490;26.012;2023-03-23T00:59:00;12.98;;;9.32;;
19776;SDS011;10047;42.490;26.012;2023-03-23T01:01:25;12.90;;;9.60;;
19776;SDS011;10047;42.490;26.012;2023-03-23T01:03:51;13.10;;;9.90;;
19776;SDS011;10047;42.490;26.012;2023-03-23T01:06:18;12.93;;;9.55;;
19776;SDS011;10047;42.490;26.012;2023-03-23T01:08:43;13.93;;;9.45;;
19776;SDS011;10047;42.490;26.012;2023-03-23T01:11:13;12.00;;;9.35;;
19776;SDS011;10047;42.490;26.012;2023-03-23T01:13:40;13.32;;;9.60;;
19776;SDS011;10047;42.490;26.012;2023-03-23T01:16:06;12.13;;;9.32;;
19776;SDS011;10047;42.490;26.012;2023-03-23T01:18:32;12.38;;;9.20;;
19776;SDS011;10047;42.490;26.012;2023-03-23T01:21:03;12.27;;;9.50;;
19776;SDS011;10047;42.490;26.012;2023-03-23T01:23:40;12.77;;;9.15;;
19776;SDS011;10047;42.490;26.012;2023-03-23T01:26:12;12.38;;;9.25;;
19776;SDS011;10047;42.490;26.012;2023-03-23T01:28:49;13.25;;;9.13;;
19776;SDS011;10047;42.490;26.012;2023-03-23T01:31:16;11.80;;;8.90;;
19776;SDS011;10047;42.490;26.012;2023-03-23T01:33:47;15.45;;;9.10;;
19776;SDS011;10047;42.490;26.012;2023-03-23T01:36:26;12.45;;;8.90;;
19776;SDS011;10047;42.490;26.012;2023-03-23T01:38:54;11.25;;;8.63;;
19776;SDS011;10047;42.490;26.012;2023-03-23T01:41:20;13.80;;;8.38;;
19776;SDS011;10047;42.490;26.012;2023-03-23T01:46:33;10.98;;;7.93;;
19776;SDS011;10047;42.490;26.012;2023-03-23T01:49:08;11.90;;;7.72;;
19776;SDS011;10047;42.490;26.012;2023-03-23T01:51:39;11.82;;;8.68;;
19776;SDS011;10047;42.490;26.012;2023-03-23T01:54:11;11.30;;;8.80;;
19776;SDS011;10047;42.490;26.012;2023-03-23T01:56:45;13.50;;;9.07;;
19776;SDS011;10047;42.490;26.012;2023-03-23T02:01:53;13.02;;;9.50;;
19776;SDS011;10047;42.490;26.012;2023-03-23T02:04:19;11.75;;;9.43;;
19776;SDS011;10047;42.490;26.012;2023-03-23T02:06:47;10.77;;;8.45;;
19776;SDS011;10047;42.490;26.012;2023-03-23T02:09:13;12.63;;;9.13;;
19776;SDS011;10047;42.490;26.012;2023-03-23T02:11:42;11.18;;;9.07;;
19776;SDS011;10047;42.490;26.012;2023-03-23T02:14:08;11.63;;;9.35;;
19776;SDS011;10047;42.490;26.012;2023-03-23T02:28:41;13.27;;;9.98;;
19776;SDS011;10047;42.490;26.012;2023-03-23T02:41:51;13.60;;;10.27;;
19776;SDS011;10047;42.490;26.012;2023-03-23T02:44:20;13.73;;;9.88;;
19776;SDS011;10047;42.490;26.012;2023-03-23T02:46:48;14.23;;;10.15;;
19776;SDS011;10047;42.490;26.012;2023-03-23T02:49:25;12.98;;;9.95;;
19776;SDS011;10047;42.490;26.012;2023-03-23T02:51:53;14.38;;;9.88;;
19776;SDS011;10047;42.490;26.012;2023-03-23T02:54:23;13.32;;;9.77;;
19776;SDS011;10047;42.490;26.012;2023-03-23T02:56:50;14.45;;;10.65;;
19776;SDS011;10047;42.490;26.012;2023-03-23T02:59:24;13.13;;;10.25;;
19776;SDS011;10047;42.490;26.012;2023-03-23T03:01:51;13.45;;;9.93;;
19776;SDS011;10047;42.490;26.012;2023-03-23T03:04:23;14.63;;;10.10;;
19776;SDS011;10047;42.490;26.012;2023-03-23T03:07:26;15.60;;;10.93;;
19776;SDS011;10047;42.490;26.012;2023-03-23T03:18:03;15.77;;;10.77;;
19776;SDS011;10047;42.490;26.012;2023-03-23T03:20:40;12.00;;;8.82;;
19776;SDS011;10047;42.490;26.012;2023-03-23T03:23:11;12.85;;;9.55;;
19776;SDS011;10047;42.490;26.012;2023-03-23T03:25:40;12.95;;;9.30;;
19776;SDS011;10047;42.490;26.012;2023-03-23T03:28:12;12.20;;;9.50;;
19776;SDS011;10047;42.490;26.012;2023-03-23T03:30:38;11.52;;;8.80;;
19776;SDS011;10047;42.490;26.012;2023-03-23T03:33:05;13.35;;;9.48;;
19776;SDS011;10047;42.490;26.012;2023-03-23T03:35:31;12.93;;;9.70;;
19776;SDS011;10047;42.490;26.012;2023-03-23T03:38:06;15.10;;;10.23;;
19776;SDS011;10047;42.490;26.012;2023-03-23T03:40:35;12.52;;;10.23;;
19776;SDS011;10047;42.490;26.012;2023-03-23T03:45:32;13.32;;;9.48;;
19776;SDS011;10047;42.490;26.012;2023-03-23T03:47:58;10.82;;;8.43;;
19776;SDS011;10047;42.490;26.012;2023-03-23T03:50:23;11.40;;;9.18;;
19776;SDS011;10047;42.490;26.012;2023-03-23T03:52:57;13.73;;;9.10;;
19776;SDS011;10047;42.490;26.012;2023-03-23T03:55:25;11.30;;;8.25;;
19776;SDS011;10047;42.490;26.012;2023-03-23T03:57:53;9.75;;;7.18;;
19776;SDS011;10047;42.490;26.012;2023-03-23T04:00:20;10.75;;;7.97;;
19776;SDS011;10047;42.490;26.012;2023-03-23T04:03:00;9.68;;;7.90;;
19776;SDS011;10047;42.490;26.012;2023-03-23T04:05:25;10.20;;;8.23;;
19776;SDS011;10047;42.490;26.012;2023-03-23T04:07:53;12.93;;;8.77;;
19776;SDS011;10047;42.490;26.012;2023-03-23T04:10:26;10.30;;;7.90;;
19776;SDS011;10047;42.490;26.012;2023-03-23T04:15:26;11.95;;;8.55;;
19776;SDS011;10047;42.490;26.012;2023-03-23T04:17:52;12.77;;;9.02;;
19776;SDS011;10047;42.490;26.012;2023-03-23T04:20:17;11.23;;;8.90;;
19776;SDS011;10047;42.490;26.012;2023-03-23T04:22:45;11.90;;;8.90;;
19776;SDS011;10047;42.490;26.012;2023-03-23T04:25:17;12.60;;;8.90;;
19776;SDS011;10047;42.490;26.012;2023-03-23T04:27:46;10.70;;;7.60;;
19776;SDS011;10047;42.490;26.012;2023-03-23T04:32:45;12.50;;;8.45;;
19776;SDS011;10047;42.490;26.012;2023-03-23T04:35:12;11.98;;;9.15;;
19776;SDS011;10047;42.490;26.012;2023-03-23T04:37:39;12.68;;;9.18;;
19776;SDS011;10047;42.490;26.012;2023-03-23T04:40:07;11.30;;;8.82;;
19776;SDS011;10047;42.490;26.012;2023-03-23T04:42:36;12.68;;;9.45;;
19776;SDS011;10047;42.490;26.012;2023-03-23T04:45:03;15.60;;;9.88;;
19776;SDS011;10047;42.490;26.012;2023-03-23T04:47:34;13.27;;;9.80;;
19776;SDS011;10047;42.490;26.012;2023-03-23T04:50:13;11.65;;;9.10;;
19776;SDS011;10047;42.490;26.012;2023-03-23T04:52:39;15.48;;;9.77;;
19776;SDS011;10047;42.490;26.012;2023-03-23T04:55:08;13.32;;;10.48;;
19776;SDS011;10047;42.490;26.012;2023-03-23T04:57:34;12.05;;;9.23;;
19776;SDS011;10047;42.490;26.012;2023-03-23T05:00:01;17.13;;;11.50;;
19776;SDS011;10047;42.490;26.012;2023-03-23T05:02:33;12.90;;;10.07;;
19776;SDS011;10047;42.490;26.012;2023-03-23T05:05:05;15.50;;;11.75;;
19776;SDS011;10047;42.490;26.012;2023-03-23T05:07:38;13.68;;;10.68;;
19776;SDS011;10047;42.490;26.012;2023-03-23T05:10:05;15.00;;;10.70;;
19776;SDS011;10047;42.490;26.012;2023-03-23T05:12:32;13.20;;;11.13;;
19776;SDS011;10047;42.490;26.012;2023-03-23T05:14:59;16.17;;;11.45;;
19776;SDS011;10047;42.490;26.012;2023-03-23T05:17:26;14.98;;;10.13;;
19776;SDS011;10047;42.490;26.012;2023-03-23T05:19:52;15.00;;;10.85;;
19776;SDS011;10047;42.490;26.012;2023-03-23T05:22:17;16.10;;;11.40;;
19776;SDS011;10047;42.490;26.012;2023-03-23T05:24:48;16.77;;;12.07;;
19776;SDS011;10047;42.490;26.012;2023-03-23T05:27:17;19.48;;;12.68;;
19776;SDS011;10047;42.490;26.012;2023-03-23T05:29:44;18.10;;;11.23;;
19776;SDS011;10047;42.490;26.012;2023-03-23T05:32:11;14.63;;;10.27;;
19776;SDS011;10047;42.490;26.012;2023-03-23T05:34:44;12.32;;;9.35;;
19776;SDS011;10047;42.490;26.012;2023-03-23T05:37:09;13.88;;;10.00;;
19776;SDS011;10047;42.490;26.012;2023-03-23T05:44:51;14.02;;;11.48;;
19776;SDS011;10047;42.490;26.012;2023-03-23T05:47:16;15.68;;;11.30;;
19776;SDS011;10047;42.490;26.012;2023-03-23T05:49:42;16.35;;;13.23;;
19776;SDS011;10047;42.490;26.012;2023-03-23T05:52:07;30.20;;;24.80;;
19776;SDS011;10047;42.490;26.012;2023-03-23T05:54:44;28.70;;;23.65;;
19776;SDS011;10047;42.490;26.012;2023-03-23T05:57:10;31.85;;;26.15;;
19776;SDS011;10047;42.490;26.012;2023-03-23T05:59:36;34.70;;;28.88;;
19776;SDS011;10047;42.490;26.012;2023-03-23T06:02:01;41.25;;;34.25;;
19776;SDS011;10047;42.490;26.012;2023-03-23T06:04:27;19.98;;;15.05;;
19776;SDS011;10047;42.490;26.012;2023-03-23T06:06:52;18.83;;;14.60;;
19776;SDS011;10047;42.490;26.012;2023-03-23T06:09:18;22.73;;;15.77;;
19776;SDS011;10047;42.490;26.012;2023-03-23T06:11:44;23.60;;;16.33;;
19776;SDS011;10047;42.490;26.012;2023-03-23T06:14:10;24.80;;;16.08;;
19776;SDS011;10047;42.490;26.012;2023-03-23T06:16:36;23.48;;;15.25;;
19776;SDS011;10047;42.490;26.012;2023-03-23T06:19:02;24.60;;;16.73;;
19776;SDS011;10047;42.490;26.012;2023-03-23T06:21:29;27.83;;;18.20;;
19776;SDS011;10047;42.490;26.012;2023-03-23T06:24:03;25.23;;;16.98;;
19776;SDS011;10047;42.490;26.012;2023-03-23T06:26:34;23.95;;;15.20;;
19776;SDS011;10047;42.490;26.012;2023-03-23T06:29:01;26.67;;;16.55;;
19776;SDS011;10047;42.490;26.012;2023-03-23T06:31:47;43.08;;;21.35;;
19776;SDS011;10047;42.490;26.012;2023-03-23T06:34:14;51.05;;;26.65;;
19776;SDS011;10047;42.490;26.012;2023-03-23T06:36:39;27.98;;;15.38;;
19776;SDS011;10047;42.490;26.012;2023-03-23T06:39:05;26.33;;;15.70;;
19776;SDS011;10047;42.490;26.012;2023-03-23T06:41:31;29.70;;;17.15;;
19776;SDS011;10047;42.490;26.012;2023-03-23T06:43:57;26.42;;;15.25;;
19776;SDS011;10047;42.490;26.012;2023-03-23T06:46:24;22.98;;;13.73;;
19776;SDS011;10047;42.490;26.012;2023-03-23T06:48:49;29.30;;;14.13;;
19776;SDS011;10047;42.490;26.012;2023-03-23T06:51:16;22.23;;;13.52;;
19776;SDS011;10047;42.490;26.012;2023-03-23T06:53:42;24.10;;;13.48;;
19776;SDS011;10047;42.490;26.012;2023-03-23T06:56:08;22.42;;;13.52;;
19776;SDS011;10047;42.490;26.012;2023-03-23T06:58:35;21.23;;;13.30;;
19776;SDS011;10047;42.490;26.012;2023-03-23T07:01:01;25.00;;;14.02;;
19776;SDS011;10047;42.490;26.012;2023-03-23T07:03:27;26.27;;;14.52;;
19776;SDS011;10047;42.490;26.012;2023-03-23T07:05:53;21.00;;;14.07;;
19776;SDS011;10047;42.490;26.012;2023-03-23T07:08:19;24.67;;;15.00;;
19776;SDS011;10047;42.490;26.012;2023-03-23T07:10:45;23.42;;;15.02;;
19776;SDS011;10047;42.490;26.012;2023-03-23T07:13:11;22.98;;;15.07;;
19776;SDS011;10047;42.490;26.012;2023-03-23T07:15:36;34.60;;;22.45;;
19776;SDS011;10047;42.490;26.012;2023-03-23T07:18:14;30.40;;;22.60;;
19776;SDS011;10047;42.490;26.012;2023-03-23T07:20:41;36.03;;;26.23;;
19776;SDS011;10047;42.490;26.012;2023-03-23T07:23:06;35.42;;;24.52;;
19776;SDS011;10047;42.490;26.012;2023-03-23T07:25:32;35.90;;;26.33;;
19776;SDS011;10047;42.490;26.012;2023-03-23T07:28:00;34.00;;;27.33;;
19776;SDS011;10047;42.490;26.012;2023-03-23T07:30:27;43.03;;;33.83;;
19776;SDS011;10047;42.490;26.012;2023-03-23T07:32:54;48.08;;;40.97;;
19776;SDS011;10047;42.490;26.012;2023-03-23T07:35:20;52.17;;;42.15;;
19776;SDS011;10047;42.490;26.012;2023-03-23T07:37:46;42.58;;;35.95;;
19776;SDS011;10047;42.490;26.012;2023-03-23T07:40:15;38.58;;;31.35;;
19776;SDS011;10047;42.490;26.012;2023-03-23T07:42:44;31.38;;;26.20;;
19776;SDS011;10047;42.490;26.012;2023-03-23T07:45:14;30.23;;;23.27;;
19776;SDS011;10047;42.490;26.012;2023-03-23T07:47:40;28.45;;;20.88;;
19776;SDS011;10047;42.490;26.012;2023-03-23T07:50:06;23.88;;;19.33;;
19776;SDS011;10047;42.490;26.012;2023-03-23T07:52:34;25.02;;;19.58;;
19776;SDS011;10047;42.490;26.012;2023-03-23T07:55:00;23.52;;;20.45;;
19776;SDS011;10047;42.490;26.012;2023-03-23T07:57:28;26.63;;;22.05;;
19776;SDS011;10047;42.490;26.012;2023-03-23T07:59:54;26.10;;;19.10;;
19776;SDS011;10047;42.490;26.012;2023-03-23T08:02:20;18.67;;;16.38;;
19776;SDS011;10047;42.490;26.012;2023-03-23T08:04:46;19.73;;;16.23;;
19776;SDS011;10047;42.490;26.012;2023-03-23T08:07:12;20.67;;;17.27;;
19776;SDS011;10047;42.490;26.012;2023-03-23T08:09:38;21.85;;;16.60;;
19776;SDS011;10047;42.490;26.012;2023-03-23T08:12:04;19.98;;;15.75;;
19776;SDS011;10047;42.490;26.012;2023-03-23T08:14:30;17.90;;;14.70;;
19776;SDS011;10047;42.490;26.012;2023-03-23T08:16:55;18.83;;;14.98;;
19776;SDS011;10047;42.490;26.012;2023-03-23T08:19:23;18.50;;;14.40;;
19776;SDS011;10047;42.490;26.012;2023-03-23T08:21:55;22.08;;;15.95;;
19776;SDS011;10047;42.490;26.012;2023-03-23T08:24:22;22.60;;;17.08;;
19776;SDS011;10047;42.490;26.012;2023-03-23T08:26:47;17.77;;;14.73;;
19776;SDS011;10047;42.490;26.012;2023-03-23T08:29:12;18.20;;;12.90;;
19776;SDS011;10047;42.490;26.012;2023-03-23T08:31:39;14.57;;;12.10;;
19776;SDS011;10047;42.490;26.012;2023-03-23T08:34:05;15.43;;;12.20;;
19776;SDS011;10047;42.490;26.012;2023-03-23T08:36:34;14.65;;;11.95;;
19776;SDS011;10047;42.490;26.012;2023-03-23T08:39:00;17.52;;;13.50;;
19776;SDS011;10047;42.490;26.012;2023-03-23T08:41:26;15.35;;;13.05;;
19776;SDS011;10047;42.490;26.012;2023-03-23T08:43:51;13.60;;;11.40;;
19776;SDS011;10047;42.490;26.012;2023-03-23T08:46:17;15.10;;;11.63;;
19776;SDS011;10047;42.490;26.012;2023-03-23T08:48:44;13.95;;;11.27;;
19776;SDS011;10047;42.490;26.012;2023-03-23T08:51:10;17.75;;;13.02;;
19776;SDS011;10047;42.490;26.012;2023-03-23T08:53:37;15.38;;;12.02;;
19776;SDS011;10047;42.490;26.012;2023-03-23T08:56:04;13.10;;;10.45;;
19776;SDS011;10047;42.490;26.012;2023-03-23T08:58:34;14.27;;;10.90;;
19776;SDS011;10047;42.490;26.012;2023-03-23T09:01:00;17.25;;;12.57;;
19776;SDS011;10047;42.490;26.012;2023-03-23T09:03:26;15.63;;;11.40;;
19776;SDS011;10047;42.490;26.012;2023-03-23T09:05:52;13.27;;;10.63;;
19776;SDS011;10047;42.490;26.012;2023-03-23T09:08:18;19.52;;;12.75;;
19776;SDS011;10047;42.490;26.012;2023-03-23T09:10:44;13.10;;;9.65;;
19776;SDS011;10047;42.490;26.012;2023-03-23T09:13:09;17.63;;;12.02;;
19776;SDS011;10047;42.490;26.012;2023-03-23T09:15:35;20.45;;;12.45;;
19776;SDS011;10047;42.490;26.012;2023-03-23T09:18:01;14.95;;;10.63;;
19776;SDS011;10047;42.490;26.012;2023-03-23T09:20:28;16.17;;;12.48;;
19776;SDS011;10047;42.490;26.012;2023-03-23T09:22:54;10.70;;;9.00;;
19776;SDS011;10047;42.490;26.012;2023-03-23T09:25:22;17.48;;;11.18;;
19776;SDS011;10047;42.490;26.012;2023-03-23T09:27:54;9.38;;;8.02;;
19776;SDS011;10047;42.490;26.012;2023-03-23T09:30:21;10.43;;;7.53;;
19776;SDS011;10047;42.490;26.012;2023-03-23T09:32:48;10.85;;;7.85;;
19776;SDS011;10047;42.490;26.012;2023-03-23T09:35:14;19.00;;;12.73;;
19776;SDS011;10047;42.490;26.012;2023-03-23T09:37:41;10.55;;;8.55;;
19776;SDS011;10047;42.490;26.012;2023-03-23T09:40:21;10.35;;;8.60;;
19776;SDS011;10047;42.490;26.012;2023-03-23T09:42:53;11.48;;;9.27;;
19776;SDS011;10047;42.490;26.012;2023-03-23T09:45:36;12.40;;;9.38;;
19776;SDS011;10047;42.490;26.012;2023-03-23T09:54:09;13.55;;;9.68;;
19776;SDS011;10047;42.490;26.012;2023-03-23T09:56:39;12.77;;;9.88;;
19776;SDS011;10047;42.490;26.012;2023-03-23T10:01:56;17.95;;;11.63;;
19776;SDS011;10047;42.490;26.012;2023-03-23T10:06:57;22.70;;;14.27;;
19776;SDS011;10047;42.490;26.012;2023-03-23T10:09:25;16.25;;;11.27;;
19776;SDS011;10047;42.490;26.012;2023-03-23T10:14:34;22.10;;;13.98;;
19776;SDS011;10047;42.490;26.012;2023-03-23T10:22:21;11.23;;;9.10;;
19776;SDS011;10047;42.490;26.012;2023-03-23T10:24:59;12.32;;;9.55;;
19776;SDS011;10047;42.490;26.012;2023-03-23T10:35:56;7.60;;;5.82;;
19776;SDS011;10047;42.490;26.012;2023-03-23T10:41:12;8.73;;;6.83;;
19776;SDS011;10047;42.490;26.012;2023-03-23T10:43:43;8.82;;;6.35;;
19776;SDS011;10047;42.490;26.012;2023-03-23T10:48:41;6.95;;;5.88;;
19776;SDS011;10047;42.490;26.012;2023-03-23T10:51:10;7.85;;;5.78;;
19776;SDS011;10047;42.490;26.012;2023-03-23T10:53:44;7.20;;;5.70;;
19776;SDS011;10047;42.490;26.012;2023-03-23T10:56:20;7.65;;;6.53;;
19776;SDS011;10047;42.490;26.012;2023-03-23T10:58:52;8.43;;;6.90;;
19776;SDS011;10047;42.490;26.012;2023-03-23T11:01:18;7.18;;;6.40;;
19776;SDS011;10047;42.490;26.012;2023-03-23T11:03:47;14.02;;;8.95;;
19776;SDS011;10047;42.490;26.012;2023-03-23T11:06:22;7.72;;;5.72;;
19776;SDS011;10047;42.490;26.012;2023-03-23T11:11:30;6.45;;;5.30;;
19776;SDS011;10047;42.490;26.012;2023-03-23T11:14:02;7.70;;;5.68;;
19776;SDS011;10047;42.490;26.012;2023-03-23T11:16:42;16.67;;;11.57;;
19776;SDS011;10047;42.490;26.012;2023-03-23T11:19:13;11.32;;;8.50;;
19776;SDS011;10047;42.490;26.012;2023-03-23T11:21:45;7.97;;;6.47;;
19776;SDS011;10047;42.490;26.012;2023-03-23T11:24:12;8.88;;;6.40;;
19776;SDS011;10047;42.490;26.012;2023-03-23T11:26:38;16.38;;;10.27;;
19776;SDS011;10047;42.490;26.012;2023-03-23T11:29:05;6.95;;;6.25;;
19776;SDS011;10047;42.490;26.012;2023-03-23T11:31:40;7.53;;;6.50;;
19776;SDS011;10047;42.490;26.012;2023-03-23T11:39:54;7.40;;;6.32;;
19776;SDS011;10047;42.490;26.012;2023-03-23T11:47:44;7.28;;;5.78;;
19776;SDS011;10047;42.490;26.012;2023-03-23T11:50:25;7.43;;;6.50;;
19776;SDS011;10047;42.490;26.012;2023-03-23T11:53:15;8.63;;;6.50;;
19776;SDS011;10047;42.490;26.012;2023-03-23T11:56:34;16.88;;;11.20;;
19776;SDS011;10047;42.490;26.012;2023-03-23T11:58:58;9.40;;;7.93;;
19776;SDS011;10047;42.490;26.012;2023-03-23T12:26:40;10.13;;;8.68;;
19776;SDS011;10047;42.490;26.012;2023-03-23T12:29:39;10.45;;;8.48;;
19776;SDS011;10047;42.490;26.012;2023-03-23T12:45:45;10.55;;;9.45;;
19776;SDS011;10047;42.490;26.012;2023-03-23T12:48:19;10.68;;;9.43;;
19776;SDS011;10047;42.490;26.012;2023-03-23T12:51:09;13.50;;;10.52;;
19776;SDS011;10047;42.490;26.012;2023-03-23T12:54:08;11.13;;;9.60;;
19776;SDS011;10047;42.490;26.012;2023-03-23T12:59:48;12.27;;;9.70;;
19776;SDS011;10047;42.490;26.012;2023-03-23T13:05:43;12.02;;;9.40;;
19776;SDS011;10047;42.490;26.012;2023-03-23T13:08:21;14.35;;;11.77;;
19776;SDS011;10047;42.490;26.012;2023-03-23T13:10:52;11.35;;;10.10;;
19776;SDS011;10047;42.490;26.012;2023-03-23T13:16:43;12.25;;;9.80;;
19776;SDS011;10047;42.490;26.012;2023-03-23T13:19:17;16.17;;;12.65;;
19776;SDS011;10047;42.490;26.012;2023-03-23T13:21:53;10.68;;;9.55;;
19776;SDS011;10047;42.490;26.012;2023-03-23T13:24:27;11.80;;;10.13;;
19776;SDS011;10047;42.490;26.012;2023-03-23T13:26:58;11.25;;;10.02;;
19776;SDS011;10047;42.490;26.012;2023-03-23T13:29:26;12.32;;;10.70;;
19776;SDS011;10047;42.490;26.012;2023-03-23T13:32:03;11.73;;;9.65;;
19776;SDS011;10047;42.490;26.012;2023-03-23T13:34:42;12.57;;;10.15;;
19776;SDS011;10047;42.490;26.012;2023-03-23T13:37:21;12.98;;;9.85;;
19776;SDS011;10047;42.490;26.012;2023-03-23T13:39:56;13.00;;;11.23;;
19776;SDS011;10047;42.490;26.012;2023-03-23T13:42:50;14.83;;;11.63;;
19776;SDS011;10047;42.490;26.012;2023-03-23T13:51:00;12.38;;;11.07;;
19776;SDS011;10047;42.490;26.012;2023-03-23T13:58:49;12.00;;;10.80;;
19776;SDS011;10047;42.490;26.012;2023-03-23T14:01:31;16.15;;;11.82;;
19776;SDS011;10047;42.490;26.012;2023-03-23T14:04:04;16.35;;;11.45;;
19776;SDS011;10047;42.490;26.012;2023-03-23T14:06:34;14.85;;;11.38;;
19776;SDS011;10047;42.490;26.012;2023-03-23T14:09:43;12.85;;;11.02;;
19776;SDS011;10047;42.490;26.012;2023-03-23T14:12:01;12.35;;;11.05;;
19776;SDS011;10047;42.490;26.012;2023-03-23T14:14:38;11.52;;;10.32;;
19776;SDS011;10047;42.490;26.012;2023-03-23T14:19:40;14.98;;;11.65;;
19776;SDS011;10047;42.490;26.012;2023-03-23T14:22:19;14.00;;;11.50;;
19776;SDS011;10047;42.490;26.012;2023-03-23T14:24:47;12.68;;;11.38;;
19776;SDS011;10047;42.490;26.012;2023-03-23T14:27:18;12.85;;;11.35;;
19776;SDS011;10047;42.490;26.012;2023-03-23T14:29:46;12.82;;;11.32;;
19776;SDS011;10047;42.490;26.012;2023-03-23T14:32:22;16.83;;;12.48;;
19776;SDS011;10047;42.490;26.012;2023-03-23T14:38:02;18.00;;;15.15;;
19776;SDS011;10047;42.490;26.012;2023-03-23T14:40:29;13.48;;;11.95;;
19776;SDS011;10047;42.490;26.012;2023-03-23T14:42:56;13.30;;;11.90;;
19776;SDS011;10047;42.490;26.012;2023-03-23T14:45:22;14.55;;;13.02;;
19776;SDS011;10047;42.490;26.012;2023-03-23T14:47:54;16.00;;;13.43;;
19776;SDS011;10047;42.490;26.012;2023-03-23T14:58:34;14.85;;;13.25;;
19776;SDS011;10047;42.490;26.012;2023-03-23T15:01:01;18.58;;;15.50;;
19776;SDS011;10047;42.490;26.012;2023-03-23T15:03:34;16.40;;;14.57;;
19776;SDS011;10047;42.490;26.012;2023-03-23T15:06:03;17.30;;;14.75;;
19776;SDS011;10047;42.490;26.012;2023-03-23T15:08:34;17.45;;;14.45;;
19776;SDS011;10047;42.490;26.012;2023-03-23T15:11:07;17.35;;;14.82;;
19776;SDS011;10047;42.490;26.012;2023-03-23T15:13:54;17.20;;;14.10;;
19776;SDS011;10047;42.490;26.012;2023-03-23T15:16:29;14.45;;;12.90;;
19776;SDS011;10047;42.490;26.012;2023-03-23T15:18:58;15.02;;;13.32;;
19776;SDS011;10047;42.490;26.012;2023-03-23T15:21:32;16.65;;;14.05;;
19776;SDS011;10047;42.490;26.012;2023-03-23T15:23:59;18.15;;;14.48;;
19776;SDS011;10047;42.490;26.012;2023-03-23T15:26:31;19.30;;;14.50;;
19776;SDS011;10047;42.490;26.012;2023-03-23T15:31:32;17.13;;;14.40;;
19776;SDS011;10047;42.490;26.012;2023-03-23T15:33:59;16.42;;;13.45;;
19776;SDS011;10047;42.490;26.012;2023-03-23T15:36:31;17.70;;;15.27;;
19776;SDS011;10047;42.490;26.012;2023-03-23T15:38:57;16.17;;;14.43;;
19776;SDS011;10047;42.490;26.012;2023-03-23T15:41:24;16.33;;;13.75;;
19776;SDS011;10047;42.490;26.012;2023-03-23T15:43:53;17.67;;;14.90;;
19776;SDS011;10047;42.490;26.012;2023-03-23T15:46:24;17.52;;;14.35;;
19776;SDS011;10047;42.490;26.012;2023-03-23T15:49:06;17.98;;;15.05;;
19776;SDS011;10047;42.490;26.012;2023-03-23T15:51:34;15.82;;;14.00;;
19776;SDS011;10047;42.490;26.012;2023-03-23T15:54:00;17.60;;;13.95;;
19776;SDS011;10047;42.490;26.012;2023-03-23T15:56:26;18.27;;;13.88;;
19776;SDS011;10047;42.490;26.012;2023-03-23T15:58:56;15.93;;;14.18;;
19776;SDS011;10047;42.490;26.012;2023-03-23T16:01:25;18.30;;;14.52;;
19776;SDS011;10047;42.490;26.012;2023-03-23T16:03:55;18.45;;;15.48;;
19776;SDS011;10047;42.490;26.012;2023-03-23T16:06:26;15.82;;;13.88;;
19776;SDS011;10047;42.490;26.012;2023-03-23T16:08:53;17.83;;;13.93;;
19776;SDS011;10047;42.490;26.012;2023-03-23T16:11:19;17.88;;;13.77;;
19776;SDS011;10047;42.490;26.012;2023-03-23T16:13:45;16.50;;;13.65;;
19776;SDS011;10047;42.490;26.012;2023-03-23T16:16:12;14.30;;;12.70;;
19776;SDS011;10047;42.490;26.012;2023-03-23T16:18:53;14.57;;;12.70;;
19776;SDS011;10047;42.490;26.012;2023-03-23T16:21:18;15.40;;;12.75;;
19776;SDS011;10047;42.490;26.012;2023-03-23T16:23:44;17.63;;;13.40;;
19776;SDS011;10047;42.490;26.012;2023-03-23T16:26:11;17.35;;;12.60;;
19776;SDS011;10047;42.490;26.012;2023-03-23T16:28:38;14.43;;;12.07;;
19776;SDS011;10047;42.490;26.012;2023-03-23T16:31:03;15.93;;;11.75;;
19776;SDS011;10047;42.490;26.012;2023-03-23T16:33:29;17.02;;;14.38;;
19776;SDS011;10047;42.490;26.012;2023-03-23T16:35:55;22.20;;;17.55;;
19776;SDS011;10047;42.490;26.012;2023-03-23T16:38:22;19.10;;;14.93;;
19776;SDS011;10047;42.490;26.012;2023-03-23T16:40:48;15.57;;;13.55;;
19776;SDS011;10047;42.490;26.012;2023-03-23T16:43:14;16.17;;;13.32;;
19776;SDS011;10047;42.490;26.012;2023-03-23T16:45:40;16.92;;;14.27;;
19776;SDS011;10047;42.490;26.012;2023-03-23T16:48:07;21.42;;;18.40;;
19776;SDS011;10047;42.490;26.012;2023-03-23T16:50:35;18.77;;;16.77;;
19776;SDS011;10047;42.490;26.012;2023-03-23T16:53:02;25.35;;;19.05;;
19776;SDS011;10047;42.490;26.012;2023-03-23T16:55:29;38.08;;;26.23;;
19776;SDS011;10047;42.490;26.012;2023-03-23T16:57:55;25.27;;;19.50;;
19776;SDS011;10047;42.490;26.012;2023-03-23T17:00:22;45.00;;;30.98;;
19776;SDS011;10047;42.490;26.012;2023-03-23T17:02:51;305.83;;;138.68;;
19776;SDS011;10047;42.490;26.012;2023-03-23T17:05:20;68.40;;;40.70;;
19776;SDS011;10047;42.490;26.012;2023-03-23T17:07:47;111.53;;;67.22;;
19776;SDS011;10047;42.490;26.012;2023-03-23T17:10:13;97.95;;;52.97;;
19776;SDS011;10047;42.490;26.012;2023-03-23T17:12:40;98.40;;;54.38;;
19776;SDS011;10047;42.490;26.012;2023-03-23T17:15:06;43.22;;;30.60;;
19776;SDS011;10047;42.490;26.012;2023-03-23T17:17:32;71.78;;;49.88;;
19776;SDS011;10047;42.490;26.012;2023-03-23T17:20:03;65.28;;;44.25;;
19776;SDS011;10047;42.490;26.012;2023-03-23T17:22:30;45.88;;;36.78;;
19776;SDS011;10047;42.490;26.012;2023-03-23T17:24:56;35.65;;;28.33;;